Time;durP1;ratioP1;P1;durP2;ratioP2;P2;SDS_P1;SDS_P2;PMS_P1;PMS_P2;Temp;Humidity;BMP_temperature;BMP_pressure;BME280_temperature;BME280_humidity;BME280_pressure;Samples;Min_cycle;Max_cycle;Signal;HPM_P1;HPM_P2
2024/02/16 00:00:39;;;;;;;0.00;0.00;;;;;;;11.13;100.00;99420.50;6214622;23;19992;-75
2024/02/16 00:03:05;;;;;;;0.00;0.00;;;;;;;10.99;100.00;99399.34;6217471;23;20028;-74
2024/02/16 00:05:30;;;;;;;0.00;0.00;;;;;;;11.00;100.00;99394.69;6210131;23;20036;-76
2024/02/16 00:07:56;;;;;;;0.00;0.00;;;;;;;10.95;100.00;99379.16;6190670;23;20004;-74
2024/02/16 00:11:13;;;;;;;0.10;0.10;;;;;;;11.05;100.00;99391.06;6189629;23;20063;-75
2024/02/16 00:13:48;;;;;;;;;;;;;;;;;;;;;
2024/02/16 00:16:32;;;;;;;0.00;0.00;;;;;;;10.93;100.00;99373.16;6190668;23;20088;-74
2024/02/16 00:19:31;;;;;;;;;;;;;;;;;;;;;
2024/02/16 00:22:00;;;;;;;0.00;0.00;;;;;;;11.02;100.00;99395.19;6192205;23;20397;-74
2024/02/16 00:24:31;;;;;;;0.00;0.00;;;;;;;11.10;100.00;99410.16;6187784;23;20020;-73
2024/02/16 00:26:57;;;;;;;0.00;0.00;;;;;;;11.04;100.00;99412.16;6213890;23;20000;-73
2024/02/16 00:29:24;;;;;;;0.00;0.00;;;;;;;10.94;100.00;99402.16;6208889;23;20004;-73
2024/02/16 00:31:50;;;;;;;0.00;0.00;;;;;;;11.07;100.00;99432.63;6216054;23;20319;-74
2024/02/16 00:34:16;;;;;;;0.00;0.00;;;;;;;11.14;100.00;99438.53;6207458;23;20036;-77
2024/02/16 00:36:41;;;;;;;0.00;0.00;;;;;;;10.97;100.00;99400.75;6163087;23;20020;-74
2024/02/16 00:39:47;;;;;;;0.00;0.00;;;;;;;11.14;100.00;99438.53;6209883;23;20032;-74
2024/02/16 00:45:09;;;;;;;0.00;0.00;;;;;;;11.07;100.00;99460.81;6218007;23;20031;-74
2024/02/16 00:47:44;;;;;;;;;;;;;;;;;;;;;
2024/02/16 00:50:37;;;;;;;0.10;0.10;;;;;;;10.71;100.00;99408.47;6219527;23;20027;-75
2024/02/16 00:53:13;;;;;;;0.00;0.00;;;;;;;10.71;100.00;99414.72;6205014;23;20012;-74
2024/02/16 00:55:41;;;;;;;0.00;0.00;;;;;;;10.88;100.00;99436.16;6191460;23;20208;-74
2024/02/16 00:58:07;;;;;;;0.00;0.00;;;;;;;10.78;100.00;99425.34;6217763;23;20007;-75
2024/02/16 01:00:32;;;;;;;0.00;0.00;;;;;;;10.82;100.00;99420.91;6167307;23;20008;-75
2024/02/16 01:02:58;;;;;;;0.10;0.10;;;;;;;10.86;100.00;99432.88;6167049;23;20011;-73
2024/02/16 01:05:23;;;;;;;0.00;0.00;;;;;;;10.97;100.00;99456.25;6166000;23;20420;-75
2024/02/16 01:11:30;;;;;;;0.00;0.00;;;;;;;11.00;100.00;99471.28;6185168;23;20017;-74
2024/02/16 01:14:48;;;;;;;0.00;0.00;;;;;;;11.00;100.00;99460.34;6186491;23;20070;-74
2024/02/16 01:17:13;;;;;;;0.00;0.00;;;;;;;10.85;100.00;99455.03;6211717;23;20023;-77
2024/02/16 01:19:40;;;;;;;0.00;0.00;;;;;;;10.81;100.00;99455.63;6190420;23;20016;-75
2024/02/16 01:22:05;;;;;;;0.00;0.00;;;;;;;10.83;100.00;99460.81;6211656;23;20032;-75
2024/02/16 01:24:31;;;;;;;0.00;0.00;;;;;;;10.92;100.00;99489.16;6190856;23;20058;-74
2024/02/16 01:26:57;;;;;;;0.00;0.00;;;;;;;10.90;100.00;99483.16;6194076;23;20060;-76
2024/02/16 01:29:22;;;;;;;0.10;0.10;;;;;;;10.77;100.00;99462.78;6215077;23;20751;-74
2024/02/16 01:31:55;;;;;;;0.00;0.00;;;;;;;10.71;100.00;99452.22;6220784;23;20012;-74
2024/02/16 01:34:30;;;;;;;0.10;0.10;;;;;;;10.87;100.00;99483.75;6193717;23;20011;-75
2024/02/16 01:38:05;;;;;;;;;;;;;;;;;;;;;
2024/02/16 01:40:36;;;;;;;;;;;;;;;;;;;;;
2024/02/16 01:43:31;;;;;;;0.10;0.10;;;;;;;10.53;100.00;99429.97;6214713;23;20088;-75
2024/02/16 01:46:04;;;;;;;;;;;;;;;10.87;100.00;99475.53;6164517;23;20012;-74
2024/02/16 01:48:30;;;;;;;0.00;0.00;;;;;;;10.85;100.00;99475.03;6215759;23;19915;-75
2024/02/16 01:50:55;;;;;;;0.00;0.00;;;;;;;10.73;100.00;99455.47;6213075;23;20000;-74
2024/02/16 01:53:22;;;;;;;0.00;0.00;;;;;;;10.81;100.00;99476.69;6217391;23;20011;-74
2024/02/16 01:56:27;;;;;;;;;;;;;;;;;;;;;
2024/02/16 02:01:59;;;;;;;0.00;0.00;;;;;;;10.74;100.00;99493.44;6178220;23;20013;-75
2024/02/16 02:04:26;;;;;;;0.00;0.00;;;;;;;10.72;100.00;99497.56;6213445;23;20035;-75
2024/02/16 02:07:10;;;;;;;0.00;0.00;;;;;;;10.88;100.00;99541.97;6207772;23;20001;-73
2024/02/16 02:09:54;;;;;;;;;;;;;;;;;;;;;
2024/02/16 02:12:22;;;;;;;0.00;0.00;;;;;;;10.57;100.00;99502.13;6189003;23;20092;-74
2024/02/16 02:14:50;;;;;;;0.00;0.00;;;;;;;10.59;100.00;99510.81;6165886;23;19988;-73
2024/02/16 02:17:16;;;;;;;0.00;0.00;;;;;;;10.75;100.00;99546.22;6185178;23;20374;-74
2024/02/16 02:19:42;;;;;;;0.10;0.10;;;;;;;10.59;100.00;99549.09;6192546;23;20035;-74
2024/02/16 02:22:22;;;;;;;0.10;0.10;;;;;;;10.57;100.00;99556.78;6162671;23;20131;-74
2024/02/16 02:24:50;;;;;;;0.00;0.00;;;;;;;10.72;100.00;99585.06;6194442;23;20080;-75
2024/02/16 02:27:34;;;;;;;0.00;0.00;;;;;;;10.50;100.00;99550.84;6188889;23;20004;-74
2024/02/16 02:30:11;;;;;;;0.10;0.10;;;;;;;10.55;100.00;99569.91;6187859;23;20001;-74
2024/02/16 02:33:12;;;;;;;;;;;;;;;;;;;;;
2024/02/16 02:35:58;;;;;;;0.10;0.10;;;;;;;10.54;100.00;99573.78;6063936;23;20058;-75
2024/02/16 02:38:24;;;;;;;0.00;0.00;;;;;;;10.50;100.00;99567.25;6186019;23;20018;-75
2024/02/16 02:40:50;;;;;;;0.00;0.00;;;;;;;10.56;100.00;99598.88;6211987;23;20079;-74
2024/02/16 02:43:15;;;;;;;0.00;0.00;;;;;;;10.43;100.00;99585.88;6185306;23;20339;-73
2024/02/16 02:45:41;;;;;;;0.00;0.00;;;;;;;10.22;100.00;99560.56;6208385;23;20009;-71
2024/02/16 02:48:06;;;;;;;0.00;0.00;;;;;;;10.34;100.00;99596.59;6185023;23;20091;-73
2024/02/16 02:50:34;;;;;;;0.00;0.00;;;;;;;10.34;100.00;99598.50;6160637;23;20293;-75
2024/02/16 02:53:00;;;;;;;0.00;0.00;;;;;;;10.27;100.00;99588.69;6210480;23;20800;-73
2024/02/16 02:55:25;;;;;;;0.00;0.00;;;;;;;10.17;100.00;99575.09;6188054;23;20008;-75
2024/02/16 02:57:51;;;;;;;0.10;0.10;;;;;;;10.27;100.00;99602.34;6161483;23;20008;-74
2024/02/16 03:00:17;;;;;;;0.00;0.00;;;;;;;10.27;100.00;99618.75;6166107;23;20009;-74
2024/02/16 03:02:43;;;;;;;0.00;0.00;;;;;;;10.11;100.00;99598.09;6215834;23;20004;-74
2024/02/16 03:05:09;;;;;;;0.00;0.00;;;;;;;10.01;100.00;99581.78;6185538;23;20091;-75
2024/02/16 03:07:35;;;;;;;0.00;0.00;;;;;;;10.07;100.00;99591.56;6189627;23;20447;-74
2024/02/16 03:10:00;;;;;;;0.00;0.00;;;;;;;10.00;100.00;99580.13;6187864;23;20445;-75
2024/02/16 03:12:26;;;;;;;0.00;0.00;;;;;;;9.99;100.00;99589.41;6213164;23;19997;-74
2024/02/16 03:14:51;;;;;;;0.10;0.10;;;;;;;9.96;100.00;99594.34;6163778;23;20008;-74
2024/02/16 03:17:17;;;;;;;0.00;0.00;;;;;;;9.96;100.00;99597.09;6189902;23;20087;-75
2024/02/16 03:19:42;;;;;;;0.00;0.00;;;;;;;9.81;100.00;99591.69;6187480;23;20084;-75
2024/02/16 03:22:08;;;;;;;0.00;0.00;;;;;;;9.81;100.00;99599.88;6185330;23;20355;-74
2024/02/16 03:24:33;;;;;;;0.00;0.00;;;;;;;9.79;100.00;99596.63;6194308;23;20016;-75
2024/02/16 03:27:00;;;;;;;0.00;0.00;;;;;;;9.92;100.00;99623.31;6214077;23;20299;-74
2024/02/16 03:32:37;;;;;;;0.00;0.00;;;;;;;9.64;100.00;99583.03;6192036;23;20028;-74
2024/02/16 03:35:38;;;;;;;0.00;0.00;;;;;;;9.85;100.00;99628.28;6215283;23;20004;-75
2024/02/16 03:38:05;;;;;;;0.00;0.00;;;;;;;9.83;100.00;99625.00;6170181;23;20443;-75
2024/02/16 03:40:30;;;;;;;0.10;0.10;;;;;;;9.68;100.00;99616.88;6188821;23;20458;-74
2024/02/16 03:43:09;;;;;;;0.00;0.00;;;;;;;9.89;100.00;99659.38;6189355;23;20035;-74
2024/02/16 03:45:34;;;;;;;0.00;0.00;;;;;;;9.59;100.00;99619.38;6161462;23;20020;-75
2024/02/16 03:48:09;;;;;;;0.00;0.00;;;;;;;9.48;100.00;99607.69;6189149;23;20114;-75
2024/02/16 03:50:35;;;;;;;0.00;0.00;;;;;;;9.61;100.00;99634.38;6188784;23;20001;-73
2024/02/16 03:53:00;;;;;;;0.00;0.00;;;;;;;9.66;100.00;99646.38;6212849;23;20334;-73
2024/02/16 03:55:31;;;;;;;0.00;0.00;;;;;;;9.60;100.00;99638.19;6163328;23;20044;-74
2024/02/16 03:57:57;;;;;;;0.00;0.00;;;;;;;9.74;100.00;99665.75;6186734;23;20001;-73
2024/02/16 04:00:24;;;;;;;0.00;0.00;;;;;;;9.63;100.00;99657.88;6188096;23;20660;-74
2024/02/16 04:02:50;;;;;;;0.00;0.00;;;;;;;9.60;100.00;99670.97;6187909;23;20029;-74
2024/02/16 04:05:15;;;;;;;0.00;0.00;;;;;;;9.65;100.00;99688.44;6214525;23;20811;-74
2024/02/16 04:07:41;;;;;;;0.00;0.00;;;;;;;9.42;100.00;99669.66;6214111;23;20000;-73
2024/02/16 04:10:06;;;;;;;0.00;0.00;;;;;;;9.50;100.00;99692.81;6188118;23;20001;-73
2024/02/16 04:12:32;;;;;;;0.05;0.05;;;;;;;9.49;100.00;99691.22;6215803;23;20009;-74
2024/02/16 04:14:58;;;;;;;0.00;0.00;;;;;;;9.39;100.00;99683.06;6186611;23;20008;-73
2024/02/16 04:17:23;;;;;;;0.00;0.00;;;;;;;9.29;100.00;99685.78;6214342;23;20125;-74
2024/02/16 04:19:51;;;;;;;0.00;0.00;;;;;;;9.33;100.00;99700.50;6212392;23;20059;-74
2024/02/16 04:22:37;;;;;;;0.00;0.00;;;;;;;9.37;100.00;99709.78;6162587;23;20029;-73
2024/02/16 04:28:25;;;;;;;0.00;0.00;;;;;;;9.11;100.00;99693.44;6122042;23;20385;-73
2024/02/16 04:31:16;;;;;;;0.00;0.00;;;;;;;9.19;100.00;99706.53;6200247;23;20004;-71
2024/02/16 04:33:55;;;;;;;0.00;0.00;;;;;;;9.00;100.00;99695.34;6164545;23;20017;-74
2024/02/16 04:36:23;;;;;;;0.00;0.00;;;;;;;9.16;100.00;99739.81;6165564;23;19993;-74
2024/02/16 04:38:48;;;;;;;0.00;0.00;;;;;;;8.90;100.00;99722.63;6212046;23;20068;-74
2024/02/16 04:41:13;;;;;;;0.00;0.00;;;;;;;8.82;100.00;99724.00;6186002;23;20424;-73
2024/02/16 04:43:39;;;;;;;0.00;0.00;;;;;;;8.71;100.00;99725.06;6214842;23;20023;-74
2024/02/16 04:46:04;;;;;;;0.00;0.00;;;;;;;8.74;100.00;99746.31;6211085;23;20634;-74
2024/02/16 04:48:32;;;;;;;0.00;0.00;;;;;;;8.72;100.00;99770.31;6190516;23;20454;-74
2024/02/16 04:50:57;;;;;;;0.00;0.00;;;;;;;8.46;100.00;99745.72;6213583;23;20131;-74
2024/02/16 04:53:23;;;;;;;0.00;0.00;;;;;;;8.47;100.00;99752.81;6162038;23;20420;-74
2024/02/16 04:55:48;;;;;;;0.00;0.00;;;;;;;8.57;100.00;99779.25;6190207;23;20004;-74
2024/02/16 04:58:14;;;;;;;0.00;0.00;;;;;;;8.48;100.00;99791.78;6163625;23;20009;-75
2024/02/16 05:01:26;;;;;;;0.00;0.00;;;;;;;8.15;100.00;99748.31;6188199;23;20096;-74
2024/02/16 05:03:51;;;;;;;0.10;0.10;;;;;;;8.26;100.00;99789.22;6191515;23;20012;-73
2024/02/16 05:06:16;;;;;;;0.08;0.08;;;;;;;8.07;100.00;99769.81;6187243;23;20008;-75
2024/02/16 05:08:42;;;;;;;0.00;0.00;;;;;;;8.07;100.00;99781.50;6190188;23;19997;-73
2024/02/16 05:11:08;;;;;;;0.00;0.00;;;;;;;8.04;100.00;99776.59;6187532;23;20420;-74
2024/02/16 05:13:36;;;;;;;0.00;0.00;;;;;;;8.15;100.00;99821.84;6161141;23;20003;-74
2024/02/16 05:16:02;;;;;;;0.00;0.00;;;;;;;8.16;100.00;99823.50;6164385;23;20008;-74
2024/02/16 05:18:36;;;;;;;0.00;0.00;;;;;;;8.17;100.00;99833.28;6213785;23;20035;-75
2024/02/16 05:21:04;;;;;;;0.00;0.00;;;;;;;7.97;100.00;99797.78;6165799;23;20090;-74
2024/02/16 05:23:29;;;;;;;0.00;0.00;;;;;;;8.20;100.00;99845.56;6185309;23;20055;-74
2024/02/16 05:25:58;;;;;;;0.00;0.00;;;;;;;8.15;100.00;99827.31;6165116;23;20012;-74
2024/02/16 05:28:23;;;;;;;0.00;0.00;;;;;;;8.06;100.00;99822.63;6210653;23;20036;-75
2024/02/16 05:30:51;;;;;;;0.00;0.00;;;;;;;8.11;100.00;99842.53;6166338;23;20439;-73
2024/02/16 05:33:26;;;;;;;0.00;0.00;;;;;;;8.28;100.00;99857.88;6188422;23;20011;-74
2024/02/16 05:35:55;;;;;;;0.00;0.00;;;;;;;8.12;100.00;99838.72;6162614;23;20012;-74
2024/02/16 05:38:31;;;;;;;0.00;0.00;;;;;;;8.17;100.00;99851.56;6187228;23;20005;-73
2024/02/16 05:40:57;;;;;;;0.10;0.10;;;;;;;8.18;100.00;99870.34;6215539;23;20059;-73
2024/02/16 05:43:26;;;;;;;0.00;0.00;;;;;;;7.92;100.00;99838.63;6189975;23;20004;-72
2024/02/16 05:45:51;;;;;;;0.00;0.00;;;;;;;7.88;100.00;99842.94;6215839;23;20016;-75
2024/02/16 05:48:17;;;;;;;0.00;0.00;;;;;;;8.01;100.00;99864.25;6188412;23;20004;-73
2024/02/16 05:50:49;;;;;;;0.10;0.10;;;;;;;7.82;100.00;99839.34;6213371;23;20007;-74
2024/02/16 05:53:18;;;;;;;0.00;0.00;;;;;;;7.96;100.00;99877.84;6163889;23;20041;-75
2024/02/16 05:55:59;;;;;;;0.10;0.10;;;;;;;7.77;100.00;99864.66;6189992;23;20348;-73
2024/02/16 05:58:36;;;;;;;0.10;0.10;;;;;;;7.83;100.00;99879.94;6188797;23;20043;-74
2024/02/16 06:01:12;;;;;;;;;;;;;;;;;;;;;
2024/02/16 06:03:43;;;;;;;0.00;0.00;;;;;;;7.78;100.00;99885.34;6216687;23;20048;-74
2024/02/16 06:06:08;;;;;;;0.00;0.00;;;;;;;7.85;100.00;99898.72;6214218;23;20004;-73
2024/02/16 06:08:34;;;;;;;0.00;0.00;;;;;;;7.59;100.00;99871.28;6189119;23;20047;-74
2024/02/16 06:11:01;;;;;;;0.00;0.00;;;;;;;7.67;100.00;99894.50;6190905;23;20091;-73
2024/02/16 06:13:32;;;;;;;0.00;0.00;;;;;;;7.62;100.00;99905.34;6163030;23;20010;-73
2024/02/16 06:15:57;;;;;;;0.00;0.00;;;;;;;7.72;100.00;99919.03;6189615;23;20107;-74
2024/02/16 06:18:23;;;;;;;0.00;0.00;;;;;;;7.67;100.00;99924.44;6187851;23;20246;-73
2024/02/16 06:20:48;;;;;;;0.10;0.10;;;;;;;7.59;100.00;99911.28;6216694;23;20020;-74
2024/02/16 06:23:17;;;;;;;0.00;0.00;;;;;;;7.62;100.00;99925.22;6165267;23;20008;-74
2024/02/16 06:26:03;;;;;;;;;;;;;;;;;;;;;
2024/02/16 06:28:38;;;;;;;0.00;0.00;;;;;;;7.43;100.00;99897.56;6166702;23;20087;-74
2024/02/16 06:31:04;;;;;;;0.00;0.00;;;;;;;7.46;100.00;99916.09;6215314;23;20063;-73
2024/02/16 06:33:32;;;;;;;0.10;0.10;;;;;;;7.60;100.00;99956.50;6163417;23;20500;-75
2024/02/16 06:35:58;;;;;;;0.00;0.00;;;;;;;7.62;100.00;99959.75;6212743;23;20416;-74
2024/02/16 06:38:23;;;;;;;0.00;0.00;;;;;;;7.59;100.00;99957.56;6166721;23;20009;-74
2024/02/16 06:40:49;;;;;;;0.00;0.00;;;;;;;7.42;100.00;99927.75;6189766;23;20073;-72
2024/02/16 06:44:16;;;;;;;;;;;;;;;;;;;;;
2024/02/16 06:47:15;;;;;;;;;;;;;;;;;;;;;
2024/02/16 06:53:00;;;;;;;0.00;0.00;;;;;;;7.45;100.00;99976.22;6080782;23;20010;-72
2024/02/16 06:55:59;;;;;;;;;;;;;;;;;;;;;
2024/02/16 07:01:45;;;;;;;0.10;0.10;;;;;;;7.47;100.00;99991.19;6189282;23;20048;-73
2024/02/16 07:04:34;;;;;;;0.00;0.00;;;;;;;7.42;100.00;99985.69;6165309;23;20050;-72
2024/02/16 07:07:51;;;;;;;;;;;;;;;;;;;;;
2024/02/16 07:10:52;;;;;;;;;;;;;;;;;;;;;
2024/02/16 07:17:33;;;;;;;;;;;;;;;;;;;;;
2024/02/16 07:20:18;;;;;;;;;;;;;;;;;;;;;
2024/02/16 07:23:20;;;;;;;0.00;0.00;;;;;;;7.74;100.00;99990.38;6217278;23;20050;-74
2024/02/16 07:26:20;;;;;;;0.00;0.00;;;;;;;8.21;100.00;100049.59;6209474;23;20031;-74
2024/02/16 07:29:13;;;;;;;0.00;0.00;;;;;;;8.32;100.00;100049.69;6211713;23;20966;-75
2024/02/16 07:32:52;;;;;;;;;;;;;;;;;;;;;
2024/02/16 07:47:53;;;;;;;0.00;0.00;;;;;;;8.18;100.00;100092.88;6065046;23;20021;-74
2024/02/16 08:11:11;;;;;;;0.00;0.00;;;;;;;8.93;100.00;100097.59;5240382;21;25309699;-74
2024/02/16 08:14:20;;;;;;;0.00;0.00;;;;;;;9.22;100.00;100134.31;6285985;22;20041;-72
2024/02/16 08:20:18;;;;;;;0.00;0.00;;;;;;;9.25;100.00;100111.13;6286048;22;20299;-74
2024/02/16 08:22:44;;;;;;;0.00;0.00;;;;;;;9.51;100.00;100153.03;6316269;22;20009;-73
2024/02/16 08:28:39;;;;;;;0.00;0.00;;;;;;;8.97;100.00;100155.97;6313762;22;20041;-74
2024/02/16 08:32:21;;;;;;;;;;;;;;;;;;;;;
2024/02/16 08:34:55;;;;;;;;;;;;;;;;;;;;;
2024/02/16 08:37:24;;;;;;;0.10;0.10;;;;;;;10.07;100.00;100178.91;6309337;22;20047;-74
2024/02/16 08:39:49;;;;;;;0.00;0.00;;;;;;;10.25;100.00;100224.88;6312535;22;20013;-74
2024/02/16 08:42:21;;;;;;;0.00;0.00;;;;;;;9.96;100.00;100208.91;6314373;22;20007;-75
2024/02/16 08:45:12;;;;;;;;;;;;;;;;;;;;;
2024/02/16 08:48:24;;;;;;;0.10;0.10;;;;;;;9.86;100.00;100230.72;6312539;22;20059;-73
2024/02/16 08:50:49;;;;;;;0.00;0.00;;;;;;;9.75;100.00;100226.28;6291254;22;20430;-73
2024/02/16 08:54:11;;;;;;;;;;;;;;;;;;;;;
2024/02/16 08:57:05;;;;;;;0.00;0.00;;;;;;;9.73;100.00;100225.75;6314139;22;20106;-72
2024/02/16 08:59:23;;;;;;;0.00;0.00;;;;;;;9.90;100.00;100223.66;6311285;22;20606;-73
2024/02/16 09:01:48;;;;;;;0.00;0.00;;;;;;;10.01;100.00;100243.63;6312576;22;20014;-72
2024/02/16 09:05:09;;;;;;;0.00;0.00;;;;;;;10.05;100.00;100265.78;6262264;22;20010;-73
2024/02/16 09:08:11;;;;;;;0.00;0.00;;;;;;;9.99;100.00;100266.81;6315028;22;20060;-73
2024/02/16 09:11:21;;;;;;;;;;;;;;;;;;;;;
2024/02/16 09:14:41;;;;;;;0.00;0.00;;;;;;;9.84;100.00;100243.84;6253969;22;20110;-74
2024/02/16 09:18:05;;;;;;;0.05;0.05;;;;;;;9.93;100.00;100247.69;6282653;22;19999;-75
2024/02/16 09:24:20;;;;;;;;;;;;;;;;;;;;;
2024/02/16 09:26:49;;;;;;;0.00;0.00;;;;;;;9.98;100.00;100267.94;6304741;22;20098;-74
2024/02/16 09:29:19;;;;;;;0.00;0.00;;;;;;;10.01;100.00;100286.53;6284974;22;20299;-74
2024/02/16 09:31:56;;;;;;;0.00;0.00;;;;;;;10.08;100.00;100293.38;6281265;22;20007;-72
2024/02/16 09:35:01;;;;;;;;;;;;;;;;;;;;;
2024/02/16 09:42:05;;;;;;;0.00;0.00;;;;;;;11.61;100.00;100295.84;6123768;23;20037;-74
2024/02/16 09:44:32;;;;;;;0.00;0.00;;;;;;;12.38;100.00;100298.41;6121092;23;20033;-74
2024/02/16 09:47:13;;;;;;;0.00;0.00;;;;;;;12.43;98.65;100330.50;6131144;23;20012;-75
2024/02/16 09:53:24;;;;;;;0.00;0.00;;;;;;;11.89;99.69;100335.56;6273724;22;20034;-74
2024/02/16 10:02:08;;;;;;;0.00;0.00;;;;;;;11.26;98.99;100347.63;6214917;23;19996;-73
2024/02/16 10:08:47;;;;;;;0.00;0.00;;;;;;;13.11;92.69;100365.50;6212338;23;20096;-74
2024/02/16 10:15:20;;;;;;;0.00;0.00;;;;;;;15.24;80.71;100335.47;6152434;23;20013;-74
2024/02/16 10:21:10;;;;;;;0.00;0.00;;;;;;;16.60;63.08;100369.44;6124504;23;20040;-74
2024/02/16 10:24:01;;;;;;;0.00;0.00;;;;;;;14.95;68.46;100348.31;6131764;23;20128;-75
2024/02/16 10:27:42;;;;;;;;;;;;;;;;;;;;;
2024/02/16 10:30:14;;;;;;;0.00;0.00;;;;;;;17.19;60.73;100353.81;6127284;23;20010;-74
2024/02/16 10:32:53;;;;;;;0.00;0.00;;;;;;;16.23;64.12;100363.81;6126218;23;20418;-75
2024/02/16 10:36:12;;;;;;;;;;;;;;;;;;;;;
2024/02/16 10:42:23;;;;;;;;;;;;;;;;;;;;;
2024/02/16 10:45:24;;;;;;;0.00;0.00;;;;;;;15.31;66.13;100416.63;6277001;22;20111;-74
2024/02/16 10:47:53;;;;;;;0.00;0.00;;;;;;;14.11;70.44;100371.56;6240089;22;20385;-74
2024/02/16 10:50:23;;;;;;;0.00;0.00;;;;;;;14.20;73.05;100417.69;6255816;22;20458;-74
2024/02/16 10:52:50;;;;;;;0.00;0.00;;;;;;;14.00;73.60;100414.00;6251885;22;19992;-73
2024/02/16 10:55:18;;;;;;;0.00;0.00;;;;;;;14.09;74.81;100405.97;6279532;22;20010;-73
2024/02/16 10:57:44;;;;;;;0.00;0.00;;;;;;;14.72;71.10;100418.78;6203760;22;20016;-72
2024/02/16 11:00:10;;;;;;;0.00;0.00;;;;;;;15.24;66.49;100440.16;6250755;22;20011;-72
2024/02/16 11:02:56;;;;;;;0.00;0.00;;;;;;;15.04;66.28;100435.72;6246500;22;20004;-72
2024/02/16 11:05:50;;;;;;;0.00;0.00;;;;;;;15.13;68.88;100440.28;6250414;22;20011;-72
2024/02/16 11:08:27;;;;;;;;;;;;;;;;;;;;;
2024/02/16 11:11:49;;;;;;;0.00;0.00;;;;;;;24.43;42.27;100437.38;6254153;22;20037;-74
2024/02/16 11:13:57;;;;;;;0.10;0.10;;;;;;;27.03;36.23;100448.28;6295107;22;20010;-73
2024/02/16 11:16:29;;;;;;;0.00;0.00;;;;;;;27.98;32.99;100429.50;6303684;22;19996;-73
2024/02/16 11:19:06;;;;;;;;;;;;;;;;;;;;;
2024/02/16 11:21:57;;;;;;;0.00;0.00;;;;;;;29.63;29.57;100438.38;6311929;22;20014;-74
2024/02/16 11:24:32;;;;;;;0.00;0.00;;;;;;;31.74;28.52;100455.72;6289490;22;20011;-75
2024/02/16 11:27:01;;;;;;;0.00;0.00;;;;;;;33.98;24.57;100442.38;6307888;22;20032;-74
2024/02/16 11:29:38;;;;;;;0.00;0.00;;;;;;;33.90;23.41;100453.03;6308019;22;20003;-73
2024/02/16 11:32:06;;;;;;;0.00;0.00;;;;;;;33.13;23.63;100462.81;6305716;22;20007;-75
2024/02/16 11:34:33;;;;;;;0.00;0.00;;;;;;;30.31;26.85;100457.50;6278283;22;20007;-74
2024/02/16 11:37:07;;;;;;;0.00;0.00;;;;;;;27.76;29.71;100429.22;6305219;22;20026;-73
2024/02/16 11:39:47;;;;;;;;;;;;;;;;;;;;;
2024/02/16 11:42:46;;;;;;;;;;;;;;;;;;;;;
2024/02/16 11:45:26;;;;;;;0.00;0.00;;;;;;;17.65;45.45;100464.41;6307726;22;20027;-78
2024/02/16 11:48:05;;;;;;;0.00;0.00;;;;;;;15.87;48.93;100431.50;6280594;22;20003;-73
2024/02/16 11:50:30;;;;;;;0.00;0.00;;;;;;;14.72;53.85;100439.97;6306168;22;21083;-73
2024/02/16 11:56:24;;;;;;;0.00;0.00;;;;;;;13.89;60.70;100450.97;6305008;22;20010;-73
2024/02/16 11:58:49;;;;;;;0.00;0.00;;;;;;;13.86;61.95;100460.59;6306370;22;20000;-75
2024/02/16 12:01:16;;;;;;;0.00;0.00;;;;;;;13.84;61.44;100464.75;6305394;22;20003;-80
2024/02/16 12:04:03;;;;;;;0.10;0.10;;;;;;;14.01;61.54;100473.41;6308362;22;20003;-80
2024/02/16 12:06:45;;;;;;;0.05;0.05;;;;;;;14.46;60.56;100465.81;6279179;22;20410;-78
2024/02/16 12:09:20;;;;;;;0.00;0.00;;;;;;;15.27;57.82;100445.06;6287116;22;20026;-78
2024/02/16 12:11:48;;;;;;;0.00;0.00;;;;;;;16.72;54.03;100431.31;6310928;22;20011;-78
2024/02/16 12:14:13;;;;;;;0.00;0.00;;;;;;;21.37;45.25;100484.03;6307687;22;20029;-78
2024/02/16 12:16:41;;;;;;;0.00;0.00;;;;;;;24.50;37.08;100489.81;6278793;22;20333;-76
2024/02/16 12:19:08;;;;;;;0.05;0.05;;;;;;;22.97;36.58;100460.66;6281743;22;20004;-77
2024/02/16 12:21:33;;;;;;;0.00;0.00;;;;;;;20.30;40.30;100470.13;6309299;22;20003;-77
2024/02/16 12:24:22;;;;;;;0.00;0.00;;;;;;;17.67;44.83;100451.09;6308089;22;20006;-78
2024/02/16 12:27:07;;;;;;;0.00;0.00;;;;;;;16.20;48.50;100494.91;6305138;22;20026;-80
2024/02/16 12:29:32;;;;;;;;;;;;;;;15.09;52.10;100477.78;6287546;22;20029;-80
2024/02/16 12:32:19;;;;;;;0.00;0.00;;;;;;;14.25;55.35;100489.13;6282246;22;20135;-80
2024/02/16 12:34:57;;;;;;;0.10;0.10;;;;;;;13.30;57.36;100450.78;6310767;22;20004;-80
2024/02/16 12:37:39;;;;;;;;;;;;;;;;;;;;;
2024/02/16 12:40:07;;;;;;;0.00;0.00;;;;;;;12.67;62.15;100449.41;6288984;22;20083;-79
2024/02/16 12:42:35;;;;;;;0.00;0.00;;;;;;;12.81;62.72;100470.81;6308987;22;20017;-80
2024/02/16 12:49:04;;;;;;;;;;;;;;;;;;;;;
2024/02/16 12:55:57;;;;;;;0.00;0.00;;;;;;;11.96;68.51;100478.63;6310171;22;20067;-79
2024/02/16 12:58:35;;;;;;;0.00;0.00;;;;;;;12.01;69.51;100503.25;6216277;23;20012;-79
2024/02/16 13:01:28;;;;;;;;;;;;;;;;;;;;;
2024/02/16 13:03:57;;;;;;;0.00;0.00;;;;;;;11.57;71.25;100459.91;6308725;22;20037;-79
2024/02/16 13:06:45;;;;;;;0.00;0.00;;;;;;;11.74;72.80;100502.66;6312979;22;20003;-80
2024/02/16 13:09:14;;;;;;;0.00;0.00;;;;;;;11.76;73.93;100525.16;6300654;22;20010;-78
2024/02/16 13:11:45;;;;;;;0.00;0.00;;;;;;;11.66;74.69;100518.53;6301724;22;20613;-79
2024/02/16 13:14:10;;;;;;;0.00;0.00;;;;;;;11.83;74.98;100531.19;6320318;22;19998;-79
2024/02/16 13:16:36;;;;;;;0.00;0.00;;;;;;;11.64;74.57;100490.59;6320310;22;19999;-79
2024/02/16 13:21:52;;;;;;;0.10;0.10;;;;;;;12.09;71.96;100503.81;6302466;22;20007;-78
2024/02/16 13:24:18;;;;;;;0.00;0.00;;;;;;;12.47;71.61;100553.69;6285536;22;20034;-78
2024/02/16 13:26:43;;;;;;;0.00;0.00;;;;;;;12.53;70.76;100527.94;6282273;22;20003;-79
2024/02/16 13:32:17;;;;;;;;;;;;;;;;;;;;;
2024/02/16 13:34:46;;;;;;;0.00;0.00;;;;;;;12.68;67.61;100543.53;6309707;22;20035;-78
2024/02/16 13:37:14;;;;;;;0.00;0.00;;;;;;;12.19;67.25;100525.75;6307031;22;20010;-78
2024/02/16 13:39:43;;;;;;;0.00;0.00;;;;;;;12.19;68.56;100570.44;6311693;22;20436;-77
2024/02/16 13:42:08;;;;;;;0.00;0.00;;;;;;;11.75;70.35;100545.41;6307742;22;20084;-78
2024/02/16 13:44:58;;;;;;;0.00;0.00;;;;;;;11.50;71.21;100547.00;6307391;22;20003;-78
2024/02/16 13:47:23;;;;;;;0.00;0.00;;;;;;;11.55;71.62;100577.16;6307805;22;20040;-81
2024/02/16 13:49:50;;;;;;;0.00;0.00;;;;;;;11.44;72.08;100557.09;6284847;22;20004;-79
2024/02/16 13:52:16;;;;;;;0.10;0.10;;;;;;;11.61;73.11;100565.09;6307068;22;20003;-80
2024/02/16 13:54:41;;;;;;;0.00;0.00;;;;;;;11.57;71.76;100555.78;6280835;22;20007;-80
2024/02/16 13:57:07;;;;;;;0.00;0.00;;;;;;;11.65;71.70;100568.13;6306700;22;20060;-80
2024/02/16 13:59:35;;;;;;;0.00;0.00;;;;;;;11.90;70.80;100593.94;6305437;22;20023;-79
2024/02/16 14:02:01;;;;;;;0.00;0.00;;;;;;;11.95;69.69;100581.09;6308761;22;20069;-80
2024/02/16 14:04:27;;;;;;;0.00;0.00;;;;;;;12.04;67.57;100593.16;6306063;22;20007;-79
2024/02/16 14:06:53;;;;;;;0.00;0.00;;;;;;;11.96;65.81;100587.38;6284748;22;20007;-79
2024/02/16 14:09:18;;;;;;;0.05;0.05;;;;;;;11.97;67.09;100606.34;6307343;22;20018;-77
2024/02/16 14:11:49;;;;;;;0.00;0.00;;;;;;;11.96;66.66;100610.16;6281104;22;20026;-73
2024/02/16 14:14:15;;;;;;;0.10;0.10;;;;;;;11.90;65.77;100603.00;6277893;22;20011;-73
2024/02/16 14:16:41;;;;;;;0.00;0.00;;;;;;;11.76;66.53;100616.38;6280977;22;20319;-79
2024/02/16 14:19:06;;;;;;;0.00;0.00;;;;;;;11.73;66.28;100605.94;6285752;22;20003;-78
2024/02/16 14:21:38;;;;;;;0.00;0.00;;;;;;;11.54;67.37;100589.19;6278298;22;20037;-76
2024/02/16 14:27:10;;;;;;;0.00;0.00;;;;;;;11.29;68.12;100577.03;6298931;22;20061;-73
2024/02/16 14:30:27;;;;;;;0.00;0.00;;;;;;;11.25;68.70;100572.38;6304858;22;20004;-72
2024/02/16 14:39:57;;;;;;;;;;;;;;;;;;;;;
2024/02/16 14:42:54;;;;;;;0.00;0.00;;;;;;;12.03;66.81;100638.13;6201255;23;20099;-74
2024/02/16 14:45:24;;;;;;;0.00;0.00;;;;;;;11.82;67.73;100592.56;6278501;22;20325;-74
2024/02/16 14:48:28;;;;;;;0.00;0.00;;;;;;;11.94;68.38;100639.72;6311363;22;20449;-75
2024/02/16 14:51:52;;;;;;;0.00;0.00;;;;;;;11.87;69.28;100639.97;6312960;22;20086;-78
2024/02/16 14:54:46;;;;;;;0.00;0.00;;;;;;;11.56;68.92;100617.13;6247323;22;20010;-77
2024/02/16 14:57:24;;;;;;;;;;;;;;;;;;;;;
2024/02/16 14:59:55;;;;;;;0.00;0.00;;;;;;;11.23;70.81;100629.28;6311037;22;20425;-78
2024/02/16 15:02:38;;;;;;;;;;;;;;;;;;;;;
2024/02/16 15:05:20;;;;;;;;;;;;;;;;;;;;;
2024/02/16 15:08:13;;;;;;;;;;;;;;;;;;;;;
2024/02/16 15:10:52;;;;;;;0.10;0.10;;;;;;;11.46;71.81;100672.69;6311499;22;20045;-77